Time;durP1;ratioP1;P1;durP2;ratioP2;P2;SDS_P1;SDS_P2;PMS_P1;PMS_P2;Temp;Humidity;BMP_temperature;BMP_pressure;BME280_temperature;BME280_humidity;BME280_pressure;Samples;Min_cycle;Max_cycle;Signal;HPM_P1;HPM_P2
2023/05/07 00:01:18;;;;;;;25.23;12.15;;;13.70;99.90;;;;;;5068283;28;20055;-45
2023/05/07 00:03:44;;;;;;;21.83;12.07;;;13.70;99.90;;;;;;5070015;28;20028;-51
2023/05/07 00:06:12;;;;;;;19.10;11.48;;;13.70;99.90;;;;;;5069637;28;20434;-45
2023/05/07 00:08:38;;;;;;;20.15;11.32;;;13.70;99.90;;;;;;5071949;28;20028;-49
2023/05/07 00:11:04;;;;;;;25.40;11.82;;;13.70;99.90;;;;;;5073502;28;20074;-43
2023/05/07 00:13:35;;;;;;;24.90;12.00;;;13.70;99.90;;;;;;5073403;28;20052;-54
2023/05/07 00:16:03;;;;;;;21.13;12.35;;;13.70;99.90;;;;;;5073511;28;20056;-44
2023/05/07 00:18:29;;;;;;;34.42;12.70;;;13.60;99.90;;;;;;5073196;28;20434;-48
2023/05/07 00:20:56;;;;;;;24.95;12.15;;;13.70;99.90;;;;;;5073368;28;20033;-52
2023/05/07 00:23:22;;;;;;;23.25;12.98;;;13.70;99.90;;;;;;5073172;28;20043;-51
2023/05/07 00:25:47;;;;;;;24.98;12.60;;;13.60;99.90;;;;;;5068882;28;20108;-50
2023/05/07 00:28:13;;;;;;;24.15;12.70;;;13.60;99.90;;;;;;5069200;28;20162;-48
2023/05/07 00:30:39;;;;;;;23.95;12.63;;;13.60;99.90;;;;;;5071604;28;20107;-45
2023/05/07 00:33:04;;;;;;;22.27;12.93;;;13.60;99.90;;;;;;5072977;28;20043;-49
2023/05/07 00:35:30;;;;;;;27.88;13.50;;;13.60;99.90;;;;;;5073078;28;20031;-46
2023/05/07 00:37:56;;;;;;;28.75;13.50;;;13.60;99.90;;;;;;5073016;28;20102;-43
2023/05/07 00:40:21;;;;;;;26.05;12.35;;;13.50;99.90;;;;;;5073096;28;20103;-44
2023/05/07 00:42:48;;;;;;;23.83;12.50;;;13.60;99.90;;;;;;5072690;28;20040;-52
2023/05/07 00:45:15;;;;;;;23.45;11.88;;;13.50;99.90;;;;;;5072875;28;20502;-45
2023/05/07 00:47:42;;;;;;;28.42;13.55;;;13.60;99.90;;;;;;5072703;28;20044;-43
2023/05/07 00:50:10;;;;;;;26.52;13.13;;;13.60;99.90;;;;;;5073007;28;20111;-51
2023/05/07 00:52:37;;;;;;;28.58;13.88;;;13.50;99.90;;;;;;5072890;28;20054;-46
2023/05/07 00:55:06;;;;;;;25.17;13.80;;;13.50;99.90;;;;;;5072739;28;20039;-50
2023/05/07 00:57:40;;;;;;;26.65;13.55;;;13.50;99.90;;;;;;5072921;28;20044;-45
2023/05/07 01:00:12;;;;;;;23.30;12.98;;;13.50;99.90;;;;;;5059140;28;20511;-56
2023/05/07 01:02:41;;;;;;;24.42;13.13;;;13.50;99.90;;;;;;5072682;28;20035;-43
2023/05/07 01:05:11;;;;;;;24.10;12.27;;;13.50;99.90;;;;;;5055296;28;20472;-49
2023/05/07 01:07:41;;;;;;;24.23;12.73;;;13.50;99.90;;;;;;5055523;28;20116;-43
2023/05/07 01:10:08;;;;;;;25.90;14.02;;;13.50;99.90;;;;;;5061383;28;20479;-44
2023/05/07 01:12:36;;;;;;;23.75;12.85;;;13.50;99.90;;;;;;5063287;28;20483;-43
2023/05/07 01:15:04;;;;;;;28.38;13.15;;;13.50;99.90;;;;;;5066407;28;20032;-45
2023/05/07 01:17:32;;;;;;;20.67;12.63;;;13.50;99.90;;;;;;5072417;28;20052;-44
2023/05/07 01:19:58;;;;;;;27.92;13.75;;;13.50;99.90;;;;;;5071832;28;20100;-47
2023/05/07 01:22:50;;;;;;;26.08;13.60;;;13.50;99.90;;;;;;5058022;28;20067;-44
2023/05/07 01:25:16;;;;;;;21.42;11.77;;;13.60;99.90;;;;;;5067580;28;20093;-50
2023/05/07 01:27:42;;;;;;;27.80;13.60;;;13.60;99.90;;;;;;5071813;28;20032;-44
2023/05/07 01:30:08;;;;;;;20.70;12.15;;;13.60;99.90;;;;;;5071957;28;20036;-45
2023/05/07 01:32:42;;;;;;;24.15;13.00;;;13.60;99.90;;;;;;5071827;28;20017;-44
2023/05/07 01:35:11;;;;;;;29.70;13.32;;;13.60;99.90;;;;;;5072342;28;20025;-44
2023/05/07 01:37:38;;;;;;;23.70;12.50;;;13.70;99.90;;;;;;5067308;28;20365;-51
2023/05/07 01:40:04;;;;;;;21.63;12.98;;;13.60;99.90;;;;;;5061734;28;20390;-46
2023/05/07 01:42:31;;;;;;;34.20;14.07;;;13.70;99.90;;;;;;5071739;28;20036;-46
2023/05/07 01:44:57;;;;;;;26.60;12.70;;;13.60;99.90;;;;;;5071532;28;20028;-49
2023/05/07 01:47:23;;;;;;;26.52;12.82;;;13.70;99.90;;;;;;5071599;28;20047;-47
2023/05/07 01:49:49;;;;;;;27.20;13.02;;;13.60;99.90;;;;;;5071658;28;20456;-53
2023/05/07 01:52:15;;;;;;;23.70;13.45;;;13.60;99.90;;;;;;5071786;28;20027;-51
2023/05/07 01:54:41;;;;;;;27.13;12.70;;;13.60;99.90;;;;;;5071495;28;20107;-44
2023/05/07 01:57:07;;;;;;;26.58;12.88;;;13.70;99.90;;;;;;5071225;28;20040;-44
2023/05/07 01:59:32;;;;;;;22.88;11.00;;;13.60;99.90;;;;;;5053249;28;20123;-45
2023/05/07 02:01:58;;;;;;;26.05;11.63;;;13.60;99.90;;;;;;5071457;28;20074;-45
2023/05/07 02:04:24;;;;;;;22.20;10.00;;;13.50;99.90;;;;;;5071472;28;20436;-45
2023/05/07 02:06:50;;;;;;;24.80;11.63;;;13.50;99.90;;;;;;5071607;28;20025;-51
2023/05/07 02:09:16;;;;;;;25.33;11.80;;;13.60;99.90;;;;;;5071370;28;20133;-45
2023/05/07 02:11:41;;;;;;;27.30;12.15;;;13.60;99.90;;;;;;5068222;28;20032;-44
2023/05/07 02:14:07;;;;;;;27.00;11.63;;;13.50;99.90;;;;;;5060170;28;20434;-46
2023/05/07 02:16:32;;;;;;;28.45;10.65;;;13.50;99.90;;;;;;5071015;28;20037;-52
2023/05/07 02:18:58;;;;;;;25.63;11.00;;;13.50;99.90;;;;;;5071181;28;20035;-55
2023/05/07 02:21:25;;;;;;;24.50;9.63;;;13.50;99.90;;;;;;5071002;28;20054;-56
2023/05/07 02:23:50;;;;;;;18.67;9.43;;;13.40;99.90;;;;;;5071058;28;20031;-52
2023/05/07 02:26:16;;;;;;;20.15;9.25;;;13.30;99.90;;;;;;5071033;28;20024;-44
2023/05/07 02:28:42;;;;;;;20.98;9.30;;;13.30;99.90;;;;;;5070218;28;20531;-45
2023/05/07 02:31:08;;;;;;;20.33;8.82;;;13.30;99.90;;;;;;5070466;28;20024;-46
2023/05/07 02:33:35;;;;;;;21.50;9.10;;;13.30;99.90;;;;;;5070853;28;20040;-45
2023/05/07 02:36:11;;;;;;;25.58;10.10;;;13.30;99.90;;;;;;5069833;28;20024;-47
2023/05/07 02:38:37;;;;;;;26.75;10.32;;;13.30;99.90;;;;;;5070539;28;20063;-48
2023/05/07 02:41:03;;;;;;;22.00;10.10;;;13.30;99.90;;;;;;5070889;28;20051;-49
2023/05/07 02:43:28;;;;;;;24.33;10.27;;;13.30;99.90;;;;;;5070625;28;20051;-48
2023/05/07 02:46:02;;;;;;;24.65;9.13;;;13.30;99.90;;;;;;5065618;28;20075;-47
2023/05/07 02:48:28;;;;;;;20.15;9.27;;;13.30;99.90;;;;;;5050813;28;20361;-46
2023/05/07 02:50:54;;;;;;;21.17;8.55;;;13.30;99.90;;;;;;5050571;28;20028;-44
2023/05/07 02:53:19;;;;;;;16.00;7.05;;;13.30;99.90;;;;;;5049578;28;20028;-45
2023/05/07 02:55:45;;;;;;;15.15;6.97;;;13.30;99.90;;;;;;5051099;28;20464;-44
2023/05/07 02:58:11;;;;;;;13.85;6.82;;;13.30;99.90;;;;;;5057549;28;20106;-52
2023/05/07 03:00:36;;;;;;;15.05;7.07;;;13.30;99.90;;;;;;5054542;28;20537;-50
2023/05/07 03:03:02;;;;;;;14.48;6.75;;;13.30;99.90;;;;;;5050057;28;20021;-51
2023/05/07 03:05:27;;;;;;;15.02;7.72;;;13.20;99.90;;;;;;5050471;28;20025;-46
2023/05/07 03:07:53;;;;;;;12.35;7.32;;;13.20;99.90;;;;;;5050016;28;20511;-46
2023/05/07 03:10:19;;;;;;;13.32;7.22;;;13.20;99.90;;;;;;5050137;28;20044;-50
2023/05/07 03:12:44;;;;;;;16.10;7.15;;;13.20;99.90;;;;;;5050218;28;20025;-46
2023/05/07 03:15:12;;;;;;;14.00;7.85;;;13.20;99.90;;;;;;5067490;28;20028;-47
2023/05/07 03:17:38;;;;;;;15.93;7.88;;;13.20;99.90;;;;;;5070493;28;20028;-52
2023/05/07 03:20:04;;;;;;;15.50;7.72;;;13.20;99.90;;;;;;5070036;28;20037;-49
2023/05/07 03:22:30;;;;;;;18.08;7.78;;;13.20;99.90;;;;;;5070155;28;20047;-55
2023/05/07 03:24:56;;;;;;;17.67;7.18;;;13.30;99.90;;;;;;5070137;28;20052;-48
2023/05/07 03:27:21;;;;;;;15.93;7.63;;;13.20;99.90;;;;;;5069919;28;20013;-45
2023/05/07 03:29:47;;;;;;;14.43;7.22;;;13.20;99.90;;;;;;5070303;28;20124;-50
2023/05/07 03:32:13;;;;;;;15.52;7.28;;;13.20;99.90;;;;;;5070264;28;20035;-48
2023/05/07 03:34:38;;;;;;;14.02;7.28;;;13.20;99.90;;;;;;5070092;28;20032;-47
2023/05/07 03:37:04;;;;;;;13.98;7.55;;;13.20;99.90;;;;;;5069954;28;20103;-50
2023/05/07 03:39:30;;;;;;;14.40;7.80;;;13.20;99.90;;;;;;5070009;28;20074;-55
2023/05/07 03:41:56;;;;;;;12.30;6.55;;;13.10;99.90;;;;;;5070309;28;20112;-48
2023/05/07 03:44:22;;;;;;;13.32;6.32;;;13.10;99.90;;;;;;5073077;28;20044;-51
2023/05/07 03:46:47;;;;;;;23.08;7.22;;;13.10;99.90;;;;;;5073824;28;20078;-46
2023/05/07 03:49:13;;;;;;;14.57;6.32;;;13.10;99.90;;;;;;5073955;28;20724;-52
2023/05/07 03:51:38;;;;;;;24.05;6.13;;;13.10;99.90;;;;;;5073864;28;20467;-45
2023/05/07 03:54:04;;;;;;;12.30;5.85;;;13.10;99.90;;;;;;5072512;28;20095;-48
2023/05/07 03:56:31;;;;;;;18.45;5.90;;;13.00;99.90;;;;;;5073422;28;20111;-45
2023/05/07 03:58:56;;;;;;;15.40;5.70;;;13.00;99.90;;;;;;5073790;28;20055;-46
2023/05/07 04:01:22;;;;;;;11.38;6.05;;;13.00;99.90;;;;;;5073891;28;20079;-46
2023/05/07 04:03:48;;;;;;;14.57;6.07;;;13.00;99.90;;;;;;5073602;28;20487;-46
2023/05/07 04:06:15;;;;;;;18.05;5.80;;;13.00;99.90;;;;;;5073315;28;20028;-46
2023/05/07 04:08:41;;;;;;;13.70;6.05;;;12.90;99.90;;;;;;5073332;28;20123;-45
2023/05/07 04:11:06;;;;;;;11.07;6.55;;;12.90;99.90;;;;;;5073068;28;20424;-45
2023/05/07 04:13:32;;;;;;;10.13;6.18;;;12.90;99.90;;;;;;5059332;28;20030;-44
2023/05/07 04:15:57;;;;;;;25.95;6.38;;;12.90;99.90;;;;;;5073384;28;20456;-45
2023/05/07 04:18:23;;;;;;;13.10;6.10;;;12.90;99.90;;;;;;5073119;28;20035;-48
2023/05/07 04:20:49;;;;;;;13.43;6.22;;;12.80;99.90;;;;;;5073337;28;20078;-44
2023/05/07 04:23:15;;;;;;;22.63;6.00;;;12.80;99.90;;;;;;5072984;28;20382;-44
2023/05/07 04:25:41;;;;;;;13.10;5.55;;;12.80;99.90;;;;;;5073545;28;20403;-46
2023/05/07 04:28:07;;;;;;;17.38;5.53;;;12.80;99.90;;;;;;5072984;28;20059;-45
2023/05/07 04:30:32;;;;;;;22.38;5.28;;;12.80;99.90;;;;;;5073125;28;20029;-44
2023/05/07 04:32:58;;;;;;;21.58;5.40;;;12.80;99.90;;;;;;5073188;28;20064;-51
2023/05/07 04:35:23;;;;;;;9.93;4.60;;;12.80;99.90;;;;;;5073172;28;20028;-44
2023/05/07 04:37:49;;;;;;;14.45;4.97;;;12.70;99.90;;;;;;5072966;28;20478;-44
2023/05/07 04:40:15;;;;;;;10.45;5.15;;;12.70;99.90;;;;;;5073427;28;20028;-45
2023/05/07 04:42:41;;;;;;;13.18;5.55;;;12.70;99.90;;;;;;5072987;28;20132;-44
2023/05/07 04:45:08;;;;;;;17.40;5.90;;;12.70;99.90;;;;;;5072897;28;20091;-52
2023/05/07 04:47:34;;;;;;;11.85;5.85;;;12.70;99.90;;;;;;5072755;28;20025;-51
2023/05/07 04:49:59;;;;;;;16.83;5.40;;;12.70;99.90;;;;;;5072909;28;20028;-45
2023/05/07 04:52:25;;;;;;;13.57;5.72;;;12.70;99.90;;;;;;5072671;28;20035;-47
2023/05/07 04:54:51;;;;;;;17.05;5.88;;;12.60;99.90;;;;;;5071664;28;20028;-43
2023/05/07 04:57:17;;;;;;;8.63;4.75;;;12.60;99.90;;;;;;5072572;28;20024;-50
2023/05/07 04:59:43;;;;;;;15.20;5.63;;;12.60;99.90;;;;;;5072551;28;20033;-50
2023/05/07 05:02:10;;;;;;;23.98;6.15;;;12.60;99.90;;;;;;5072384;28;20016;-50
2023/05/07 05:04:36;;;;;;;10.90;5.97;;;12.60;99.90;;;;;;5072255;28;20024;-51
2023/05/07 05:07:03;;;;;;;24.92;6.03;;;12.50;99.90;;;;;;5072160;28;20024;-43
2023/05/07 05:09:30;;;;;;;19.35;6.18;;;12.50;99.90;;;;;;5072568;28;20052;-44
2023/05/07 05:11:55;;;;;;;11.95;5.68;;;12.50;99.90;;;;;;5067682;28;20052;-50
2023/05/07 05:14:21;;;;;;;15.02;6.43;;;12.40;99.90;;;;;;5063306;28;20048;-47
2023/05/07 05:16:47;;;;;;;13.43;7.10;;;12.40;99.90;;;;;;5072309;28;20086;-44
2023/05/07 05:19:12;;;;;;;13.27;7.38;;;12.50;99.90;;;;;;5072515;28;20575;-51
2023/05/07 05:21:38;;;;;;;26.45;8.38;;;12.50;99.90;;;;;;5072036;28;20024;-48
2023/05/07 05:24:04;;;;;;;24.08;8.07;;;12.50;99.90;;;;;;5072201;28;20029;-44
2023/05/07 05:26:29;;;;;;;20.98;8.40;;;12.50;99.90;;;;;;5072527;28;20031;-50
2023/05/07 05:28:55;;;;;;;15.77;8.27;;;12.60;99.90;;;;;;5072061;28;20441;-52
2023/05/07 05:31:21;;;;;;;19.88;8.20;;;12.60;99.90;;;;;;5072158;28;20035;-49
2023/05/07 05:33:46;;;;;;;20.15;7.70;;;12.70;99.90;;;;;;5072148;28;20032;-46
2023/05/07 05:36:13;;;;;;;16.88;7.90;;;12.70;99.90;;;;;;5071976;28;20021;-46
2023/05/07 05:38:39;;;;;;;14.82;7.82;;;12.70;99.90;;;;;;5071832;28;20040;-44
2023/05/07 05:41:05;;;;;;;17.55;8.48;;;12.70;99.90;;;;;;5072176;28;20283;-44
2023/05/07 05:43:30;;;;;;;12.93;7.68;;;12.70;99.90;;;;;;5071635;28;20144;-45
2023/05/07 05:45:57;;;;;;;14.10;7.63;;;12.70;99.90;;;;;;5071696;28;20032;-50
2023/05/07 05:48:23;;;;;;;13.77;7.78;;;12.70;99.90;;;;;;5071736;28;20036;-44
2023/05/07 05:50:48;;;;;;;17.17;8.02;;;12.80;99.90;;;;;;5071469;28;20040;-49
2023/05/07 05:53:15;;;;;;;14.10;7.78;;;12.80;99.90;;;;;;5071703;28;20028;-53
2023/05/07 05:55:44;;;;;;;14.45;6.95;;;12.80;99.90;;;;;;5071653;28;20047;-46
2023/05/07 05:58:10;;;;;;;14.45;7.47;;;12.90;99.90;;;;;;5071681;28;20103;-53
2023/05/07 06:00:35;;;;;;;11.60;7.07;;;12.90;99.90;;;;;;5071550;28;20113;-46
2023/05/07 06:03:01;;;;;;;12.43;6.88;;;12.80;99.90;;;;;;5071427;28;20238;-46
2023/05/07 06:05:29;;;;;;;12.32;7.18;;;12.90;99.90;;;;;;5071494;28;20498;-46
2023/05/07 06:07:54;;;;;;;10.50;6.68;;;13.00;99.90;;;;;;5072544;28;20324;-43
2023/05/07 06:10:20;;;;;;;11.68;6.72;;;13.00;99.90;;;;;;5074932;28;20035;-43
2023/05/07 06:12:46;;;;;;;9.93;6.30;;;13.00;99.90;;;;;;5055118;28;20036;-49
2023/05/07 06:15:11;;;;;;;10.88;6.80;;;13.10;99.90;;;;;;5068677;28;20120;-44
2023/05/07 06:17:37;;;;;;;13.73;7.20;;;13.00;99.90;;;;;;5081083;28;20506;-54
2023/05/07 06:20:03;;;;;;;13.85;8.07;;;13.10;99.90;;;;;;5073068;28;20052;-46
2023/05/07 06:22:29;;;;;;;18.17;7.68;;;13.10;99.90;;;;;;5074150;28;20027;-45
2023/05/07 06:24:54;;;;;;;10.75;6.85;;;13.10;99.90;;;;;;5071345;28;20021;-47
2023/05/07 06:27:20;;;;;;;11.07;6.65;;;13.10;99.90;;;;;;5051442;28;20509;-52
2023/05/07 06:29:47;;;;;;;14.73;7.25;;;13.20;99.90;;;;;;5074183;28;20447;-47
2023/05/07 06:32:13;;;;;;;14.30;7.65;;;13.30;99.90;;;;;;5073140;28;20463;-47
2023/05/07 06:34:40;;;;;;;10.48;6.82;;;13.30;99.90;;;;;;5070917;28;20025;-45
2023/05/07 06:37:06;;;;;;;12.48;7.45;;;13.30;99.90;;;;;;5073680;28;20028;-52
2023/05/07 06:39:32;;;;;;;12.48;7.53;;;13.20;99.90;;;;;;5070850;28;20490;-46
2023/05/07 06:41:59;;;;;;;12.40;7.28;;;13.20;99.90;;;;;;5070820;28;20077;-44
2023/05/07 06:44:25;;;;;;;12.43;6.63;;;13.30;99.90;;;;;;5070421;28;20040;-45
2023/05/07 06:46:51;;;;;;;13.68;7.18;;;13.30;99.90;;;;;;5070827;28;20199;-54
2023/05/07 06:49:17;;;;;;;9.60;6.22;;;13.40;99.90;;;;;;5070651;28;20120;-52
2023/05/07 06:51:42;;;;;;;10.43;6.68;;;13.40;99.90;;;;;;5071084;28;20383;-48
2023/05/07 06:54:08;;;;;;;11.35;6.57;;;13.50;99.90;;;;;;5070856;28;20111;-50
2023/05/07 06:56:36;;;;;;;10.50;5.97;;;13.50;99.90;;;;;;5070723;28;20471;-45
2023/05/07 06:59:03;;;;;;;9.50;6.23;;;13.60;99.90;;;;;;5070796;28;20029;-47
2023/05/07 07:01:29;;;;;;;9.05;5.65;;;13.70;99.90;;;;;;5070555;28;20063;-49
2023/05/07 07:03:55;;;;;;;8.95;6.07;;;13.70;99.90;;;;;;5070712;28;20436;-49
2023/05/07 07:06:20;;;;;;;9.88;5.82;;;13.80;99.90;;;;;;5070762;28;20029;-47
2023/05/07 07:08:46;;;;;;;9.20;5.85;;;13.80;99.90;;;;;;5070615;28;20060;-52
2023/05/07 07:11:12;;;;;;;10.55;5.70;;;13.80;99.90;;;;;;5070687;28;20020;-46
2023/05/07 07:13:37;;;;;;;9.85;6.22;;;13.80;99.90;;;;;;5056562;28;20031;-53
2023/05/07 07:16:03;;;;;;;9.52;5.80;;;13.80;99.90;;;;;;5070274;28;20060;-55
2023/05/07 07:18:29;;;;;;;9.55;6.13;;;13.90;99.90;;;;;;5072355;28;20025;-53
2023/05/07 07:20:54;;;;;;;10.25;5.93;;;13.90;99.90;;;;;;5073492;28;20115;-46
2023/05/07 07:23:20;;;;;;;9.63;6.20;;;14.00;99.90;;;;;;5074653;28;20387;-46
2023/05/07 07:25:46;;;;;;;10.52;6.65;;;14.10;99.90;;;;;;5074673;28;20052;-46
2023/05/07 07:28:12;;;;;;;10.55;6.30;;;14.10;99.90;;;;;;5074358;28;20033;-48
2023/05/07 07:30:38;;;;;;;10.52;6.50;;;14.10;99.90;;;;;;5074298;28;20027;-48
2023/05/07 07:33:05;;;;;;;11.23;6.53;;;14.20;99.90;;;;;;5074359;28;20037;-44
2023/05/07 07:35:34;;;;;;;12.60;6.68;;;14.20;99.90;;;;;;5074528;28;20032;-44
2023/05/07 07:38:00;;;;;;;11.05;7.07;;;14.20;99.90;;;;;;5074569;28;20086;-45
2023/05/07 07:40:25;;;;;;;10.80;6.68;;;14.30;99.90;;;;;;5072386;28;20032;-45
2023/05/07 07:42:52;;;;;;;9.10;6.38;;;14.40;99.90;;;;;;5070667;28;20051;-53
2023/05/07 07:45:18;;;;;;;12.25;6.60;;;14.50;99.90;;;;;;5072660;28;20529;-50
2023/05/07 07:47:43;;;;;;;9.55;6.63;;;14.60;99.90;;;;;;5068054;28;20170;-45
2023/05/07 07:50:09;;;;;;;10.40;7.38;;;14.60;99.90;;;;;;5055179;28;20108;-45
2023/05/07 07:52:35;;;;;;;11.15;7.68;;;14.60;99.90;;;;;;5055820;28;20017;-44
2023/05/07 07:55:01;;;;;;;11.27;7.88;;;14.60;99.90;;;;;;5059220;28;20106;-46
2023/05/07 07:57:27;;;;;;;14.82;8.55;;;14.60;99.90;;;;;;5053883;28;20494;-47
2023/05/07 07:59:52;;;;;;;15.82;8.45;;;14.60;99.90;;;;;;5053441;28;20029;-43
2023/05/07 08:02:18;;;;;;;13.30;8.55;;;14.60;99.90;;;;;;5053780;28;20027;-51
2023/05/07 08:04:44;;;;;;;12.63;8.40;;;14.50;99.90;;;;;;5053450;28;20377;-50
2023/05/07 08:07:10;;;;;;;10.73;7.28;;;14.50;99.90;;;;;;5065271;28;20021;-48
2023/05/07 08:09:39;;;;;;;11.13;7.32;;;14.40;99.90;;;;;;5055985;28;20051;-48
2023/05/07 08:12:05;;;;;;;;;;;14.50;99.90;;;;;;5059551;28;20103;-49
2023/05/07 08:14:31;;;;;;;10.32;7.13;;;14.50;99.90;;;;;;5061442;28;19909;-46
2023/05/07 08:16:56;;;;;;;9.40;6.03;;;14.50;99.90;;;;;;5065408;28;20067;-47
2023/05/07 08:19:22;;;;;;;10.90;6.80;;;14.50;99.90;;;;;;5053319;28;20060;-48
2023/05/07 08:21:48;;;;;;;9.80;6.60;;;14.60;99.90;;;;;;5053218;28;20025;-50
2023/05/07 08:24:15;;;;;;;11.27;6.93;;;14.70;99.90;;;;;;5053438;28;20435;-46
2023/05/07 08:26:41;;;;;;;10.25;7.00;;;14.80;99.90;;;;;;5053461;28;20029;-45
2023/05/07 08:29:06;;;;;;;13.35;6.55;;;14.90;99.90;;;;;;5051843;28;20041;-47
2023/05/07 08:31:32;;;;;;;12.07;7.18;;;14.90;99.90;;;;;;5053128;28;20354;-43
2023/05/07 08:33:58;;;;;;;13.27;8.10;;;15.10;99.90;;;;;;5052930;28;20399;-45
2023/05/07 08:36:25;;;;;;;12.68;7.57;;;15.10;99.90;;;;;;5053105;28;20041;-49
2023/05/07 08:38:51;;;;;;;11.60;6.97;;;14.90;99.90;;;;;;5052952;28;20039;-50
2023/05/07 08:41:17;;;;;;;10.65;7.10;;;15.00;99.90;;;;;;5052963;28;20025;-50
2023/05/07 08:43:50;;;;;;;11.15;7.70;;;15.00;99.90;;;;;;5052515;28;20052;-46
2023/05/07 08:46:20;;;;;;;11.50;7.18;;;15.10;99.90;;;;;;5052757;28;20013;-48
2023/05/07 08:48:48;;;;;;;10.35;7.10;;;15.30;99.90;;;;;;5052692;28;20076;-47
2023/05/07 08:51:17;;;;;;;13.10;8.05;;;15.40;99.90;;;;;;5056004;28;20028;-53
2023/05/07 08:53:43;;;;;;;15.57;9.53;;;15.40;99.90;;;;;;5060393;28;20028;-51
2023/05/07 08:56:10;;;;;;;15.38;10.02;;;15.50;99.90;;;;;;5056760;28;20061;-48
2023/05/07 08:58:35;;;;;;;15.93;10.23;;;15.60;99.90;;;;;;5057524;28;20025;-53
2023/05/07 09:01:09;;;;;;;16.13;10.30;;;15.50;99.90;;;;;;5061161;28;20071;-47
2023/05/07 09:03:35;;;;;;;13.88;9.55;;;15.70;99.90;;;;;;5067315;28;20087;-47
2023/05/07 09:06:00;;;;;;;13.85;8.95;;;15.60;99.90;;;;;;5069109;28;20116;-47
2023/05/07 09:08:27;;;;;;;13.70;9.35;;;15.70;99.90;;;;;;5064408;28;20122;-52
2023/05/07 09:10:53;;;;;;;13.32;8.90;;;15.70;99.90;;;;;;5052256;28;20464;-45
2023/05/07 09:13:19;;;;;;;12.68;8.63;;;15.80;99.90;;;;;;5054579;28;20100;-46
2023/05/07 09:15:45;;;;;;;12.30;8.57;;;15.90;99.90;;;;;;5072378;28;20112;-50
2023/05/07 09:18:12;;;;;;;11.65;7.90;;;15.80;99.90;;;;;;5072517;28;20106;-45
2023/05/07 09:20:38;;;;;;;12.23;8.63;;;16.10;99.90;;;;;;5065253;28;20021;-52
2023/05/07 09:23:03;;;;;;;12.48;8.65;;;16.20;99.90;;;;;;5052184;28;20040;-46
2023/05/07 09:25:31;;;;;;;14.20;9.05;;;16.50;99.90;;;;;;5051943;28;20021;-48
2023/05/07 09:27:57;;;;;;;10.95;8.10;;;16.50;99.90;;;;;;5052050;28;20025;-50
2023/05/07 09:30:22;;;;;;;11.57;8.35;;;16.50;99.90;;;;;;5052107;28;20025;-50
2023/05/07 09:32:48;;;;;;;11.80;8.57;;;16.60;99.90;;;;;;5051839;28;20458;-51
2023/05/07 09:35:17;;;;;;;12.27;8.88;;;16.60;99.90;;;;;;5051883;28;20033;-46
2023/05/07 09:37:43;;;;;;;12.60;9.10;;;16.50;99.90;;;;;;5050950;28;20358;-49
2023/05/07 09:40:24;;;;;;;13.82;9.45;;;16.40;99.90;;;;;;5051442;28;20099;-51
2023/05/07 09:42:50;;;;;;;12.38;9.23;;;16.40;99.90;;;;;;5051536;28;20116;-46
2023/05/07 09:45:21;;;;;;;12.55;8.52;;;16.50;99.90;;;;;;5051950;28;20120;-46
2023/05/07 09:47:49;;;;;;;11.00;8.52;;;16.50;99.90;;;;;;5051530;28;20043;-49
2023/05/07 09:50:18;;;;;;;11.65;8.73;;;16.50;99.90;;;;;;5051529;28;20037;-47
2023/05/07 09:52:44;;;;;;;12.15;8.77;;;16.60;99.90;;;;;;5051382;28;20433;-48
2023/05/07 09:55:12;;;;;;;11.07;8.68;;;16.60;99.90;;;;;;5051714;28;20048;-49
2023/05/07 09:57:39;;;;;;;12.30;8.50;;;16.70;99.90;;;;;;5051377;28;20028;-49
2023/05/07 10:00:08;;;;;;;14.95;9.45;;;16.80;99.90;;;;;;5051541;28;20021;-46
2023/05/07 10:02:36;;;;;;;14.63;10.50;;;16.80;99.90;;;;;;5051277;28;20036;-52
2023/05/07 10:05:03;;;;;;;14.20;10.65;;;16.80;99.90;;;;;;5050945;28;20037;-46
2023/05/07 10:07:29;;;;;;;12.30;9.55;;;16.40;99.90;;;;;;5051685;28;20028;-48
2023/05/07 10:09:55;;;;;;;12.48;9.15;;;16.60;99.90;;;;;;5051179;28;20041;-49
2023/05/07 10:12:21;;;;;;;12.65;9.57;;;16.60;99.90;;;;;;5052697;28;20021;-46
2023/05/07 10:14:48;;;;;;;12.48;9.52;;;16.70;99.90;;;;;;5053313;28;20391;-45
2023/05/07 10:17:17;;;;;;;15.15;10.25;;;16.90;99.90;;;;;;5053663;28;20569;-46
2023/05/07 10:19:44;;;;;;;14.63;10.40;;;16.90;99.90;;;;;;5057039;28;20039;-55
2023/05/07 10:22:13;;;;;;;12.50;10.40;;;16.90;99.90;;;;;;5056720;28;20032;-48
2023/05/07 10:24:39;;;;;;;11.55;9.38;;;17.10;99.90;;;;;;5054614;28;20059;-48
2023/05/07 10:27:10;;;;;;;12.25;9.77;;;17.20;99.90;;;;;;5053109;28;20051;-45
2023/05/07 10:29:49;;;;;;;14.45;9.65;;;17.20;99.90;;;;;;5050809;28;20159;-47
2023/05/07 10:32:27;;;;;;;10.77;9.00;;;17.30;99.90;;;;;;5050728;28;20021;-53
2023/05/07 10:34:55;;;;;;;9.07;8.07;;;17.30;99.90;;;;;;5050792;28;20480;-49
2023/05/07 10:37:22;;;;;;;8.67;6.87;;;17.30;99.90;;;;;;5050872;28;20033;-47
2023/05/07 10:39:48;;;;;;;7.93;6.93;;;17.20;99.90;;;;;;5050751;28;20017;-50
2023/05/07 10:42:14;;;;;;;8.40;7.28;;;17.10;99.90;;;;;;5049058;28;20165;-46
2023/05/07 10:44:40;;;;;;;8.95;7.93;;;17.40;99.90;;;;;;5058924;28;20085;-47
2023/05/07 10:47:10;;;;;;;8.20;7.22;;;17.50;99.90;;;;;;5052354;28;20020;-49
2023/05/07 10:50:05;;;;;;;10.38;7.57;;;17.40;99.90;;;;;;5050380;28;20090;-49
2023/05/07 10:52:30;;;;;;;8.63;7.47;;;17.40;99.90;;;;;;5049676;28;20029;-47
2023/05/07 10:55:17;;;;;;;8.77;7.85;;;17.30;99.90;;;;;;5050336;28;20436;-50
2023/05/07 10:57:42;;;;;;;8.00;6.72;;;17.20;99.90;;;;;;5049114;28;20407;-47
2023/05/07 11:00:23;;;;;;;10.20;7.25;;;17.30;99.90;;;;;;5050561;28;20025;-49
2023/05/07 11:03:01;;;;;;;9.13;7.30;;;17.40;99.90;;;;;;5049183;28;20031;-46
2023/05/07 11:05:31;;;;;;;9.25;8.35;;;17.60;99.90;;;;;;5050270;28;20048;-49
2023/05/07 11:08:01;;;;;;;8.90;7.28;;;17.60;99.90;;;;;;5050072;28;20480;-51
2023/05/07 11:10:51;;;;;;;11.20;8.20;;;17.70;99.90;;;;;;5050597;28;20460;-49
2023/05/07 11:13:18;;;;;;;10.77;7.40;;;17.80;99.90;;;;;;5045868;28;20033;-56
2023/05/07 11:15:45;;;;;;;9.57;7.57;;;17.90;99.90;;;;;;5050183;28;20040;-49
2023/05/07 11:18:15;;;;;;;8.70;7.80;;;18.10;99.90;;;;;;5050349;28;20021;-49
2023/05/07 11:20:51;;;;;;;8.15;6.53;;;18.20;99.90;;;;;;5050340;28;20105;-46
2023/05/07 11:23:35;;;;;;;7.63;6.13;;;18.30;99.90;;;;;;5050138;28;20510;-49
2023/05/07 11:26:09;;;;;;;8.07;6.47;;;18.30;99.90;;;;;;5050519;28;20033;-50
2023/05/07 11:28:42;;;;;;;7.70;6.90;;;18.20;99.90;;;;;;5049980;28;20033;-48
2023/05/07 11:31:09;;;;;;;7.32;6.47;;;18.60;99.90;;;;;;5050322;28;20021;-48
2023/05/07 11:33:35;;;;;;;8.18;6.38;;;19.00;99.90;;;;;;5050258;28;20420;-45
2023/05/07 11:36:03;;;;;;;8.02;5.90;;;19.20;99.90;;;;;;5051457;28;20056;-49
2023/05/07 11:38:38;;;;;;;7.97;6.00;;;19.30;99.90;;;;;;5050261;28;20024;-51
2023/05/07 11:41:05;;;;;;;6.35;5.70;;;19.30;99.90;;;;;;5049990;28;20392;-47
2023/05/07 11:43:32;;;;;;;18.60;11.65;;;19.30;99.90;;;;;;5050191;28;20049;-52
2023/05/07 11:46:11;;;;;;;7.35;6.53;;;19.40;99.90;;;;;;5050017;28;20108;-52
2023/05/07 11:48:38;;;;;;;7.22;5.65;;;19.40;99.90;;;;;;5050120;28;20127;-54
2023/05/07 11:51:05;;;;;;;6.25;5.53;;;19.40;99.90;;;;;;5049798;28;20017;-48
2023/05/07 11:53:39;;;;;;;8.00;6.07;;;19.20;99.90;;;;;;5048783;28;20032;-51
2023/05/07 11:56:10;;;;;;;8.63;6.32;;;19.00;99.90;;;;;;5049845;28;20025;-58
2023/05/07 11:58:36;;;;;;;6.45;5.75;;;19.10;99.90;;;;;;5050039;28;20037;-54
2023/05/07 12:01:02;;;;;;;7.15;6.18;;;19.10;99.90;;;;;;5049948;28;20021;-51
2023/05/07 12:03:28;;;;;;;7.57;6.82;;;19.10;99.90;;;;;;5050085;28;20428;-50
2023/05/07 12:05:53;;;;;;;9.40;6.20;;;19.20;99.90;;;;;;5053264;28;20035;-52
2023/05/07 12:08:20;;;;;;;8.38;7.15;;;19.10;99.90;;;;;;5054561;28;20366;-49
2023/05/07 12:10:48;;;;;;;8.30;6.45;;;18.90;99.90;;;;;;5053489;28;20124;-49
2023/05/07 12:13:22;;;;;;;7.53;6.23;;;18.90;99.90;;;;;;5053198;28;20032;-52
2023/05/07 12:15:52;;;;;;;9.45;5.95;;;18.90;99.90;;;;;;5056260;28;20269;-52
2023/05/07 12:18:18;;;;;;;7.15;5.72;;;18.80;99.90;;;;;;5053188;28;20083;-53
2023/05/07 12:20:45;;;;;;;7.63;5.35;;;19.00;99.90;;;;;;5053546;28;20024;-48
2023/05/07 12:23:11;;;;;;;6.63;5.35;;;19.30;99.90;;;;;;5053282;28;20028;-54
2023/05/07 12:25:46;;;;;;;7.32;5.85;;;19.50;99.90;;;;;;5053225;28;20147;-48
2023/05/07 12:28:16;;;;;;;7.20;5.30;;;19.60;99.90;;;;;;5057074;28;20063;-46
2023/05/07 12:30:50;;;;;;;6.28;5.25;;;19.40;99.90;;;;;;5052516;28;20028;-46
2023/05/07 12:33:25;;;;;;;7.95;5.05;;;19.50;99.90;;;;;;5052893;28;20037;-47
2023/05/07 12:35:52;;;;;;;6.38;4.75;;;19.50;99.90;;;;;;5053306;28;20021;-50